PATK

Details ICAO PATK (TKA)
Name TALKEETNA
Region USA (Alaska)
Timezone America/Anchorage (UTC-8.0)
Plans Departing 17
Arriving 21
Stats Elevation 358 ft / 109 m (AMSL)
Location 62.320512° -150.093685°
Runways 1
Magnetic Variation 16.165° E
Sunrise 2018-06-25 12:07:47 UTC / 2018-06-25 04:07:47 Local
Sunset 2018-06-26 08:00:45 UTC / 2018-06-26 00:00:45 Local
Advertisement - Login to hide

Runways

ID Width Length Bearing (true) Bearing (mag) Surface Threshold Offset Overrun Length
18 75 ft / 23 m 3,503 ft / 1,068 m 207.01° 190.85° Asphalt 0 ft / 0 m 0 ft / 0 m
36 75 ft / 23 m 3,503 ft / 1,068 m 27.01° 10.85° Asphalt 0 ft / 0 m 0 ft / 0 m

Map

Weather


0- 5 10 15 20 25 30 35+ Temperature / ° C

Clouds and Precipitation
Forecast for 2018-06-25 12:00 UTC. Updated 2 hours ago

Ground ~20,000 ft ~40,000 ft Winds

METAR

PATK 251053Z AUTO 00000KT 10SM OVC060 12/07 A2988 RMK AO2 RAB20E31 SLP121 P0000 T01220067 TSNO

TAF

PATK 250525Z 2506/2606 19006KT P6SM -SHRA SCT025 OVC040

Frequencies

Recorded 135.20 MHz ASOS
Unicom 123.00 MHz UNICOM
Unicom 123.60 MHz CTAF
Approach 125.55 MHz APP-DEP Anchorage
Warning: Do not use this data for real-world aviation or navigation. No guarantee of current accuracy is given.